createdAt,value
2023-01-22T12:51:43.006Z,2.72
2023-01-22T12:54:22.116Z,2.67
2023-01-22T12:56:50.937Z,2.75
2023-01-22T12:59:32.653Z,2.58
2023-01-22T13:02:01.614Z,2.66
2023-01-22T13:04:30.524Z,2.73
2023-01-22T13:07:07.036Z,2.59
2023-01-22T13:09:37.755Z,2.76
2023-01-22T13:12:26.914Z,2.66
2023-01-22T13:14:55.099Z,2.88
2023-01-22T13:17:25.675Z,2.75
2023-01-22T13:19:53.427Z,2.62
2023-01-22T13:22:25.815Z,2.58
2023-01-22T13:24:55.671Z,2.71
2023-01-22T13:27:26.386Z,2.71
2023-01-22T13:29:54.121Z,2.70
2023-01-22T13:32:23.385Z,2.75
2023-01-22T13:34:51.074Z,2.76
2023-01-22T13:37:23.668Z,2.93
2023-01-22T13:39:51.681Z,3.04
2023-01-22T13:42:19.629Z,2.88
2023-01-22T13:44:50.880Z,2.81
2023-01-22T13:47:28.582Z,3.12
2023-01-22T13:49:56.634Z,2.82
2023-01-22T13:52:26.110Z,2.96
2023-01-22T13:54:59.039Z,3.10
2023-01-22T13:57:26.784Z,2.98
2023-01-22T14:02:47.382Z,3.01
2023-01-22T14:05:18.614Z,3.13
2023-01-22T14:07:47.930Z,2.98
2023-01-22T14:10:18.227Z,2.99
2023-01-22T14:12:46.096Z,2.90
2023-01-22T14:15:18.871Z,2.96
2023-01-22T14:17:48.510Z,3.01
2023-01-22T14:20:17.765Z,3.16
2023-01-22T14:22:47.009Z,3.06
2023-01-22T14:25:14.559Z,3.05
2023-01-22T14:27:44.769Z,3.05
2023-01-22T14:30:15.834Z,3.05
2023-01-22T14:32:43.810Z,2.95
2023-01-22T14:35:17.607Z,2.86
2023-01-22T14:37:47.057Z,2.99
2023-01-22T14:40:17.551Z,2.90
2023-01-22T14:42:46.681Z,2.77
2023-01-22T14:45:16.560Z,2.86
2023-01-22T14:47:44.371Z,2.75
2023-01-22T14:50:12.943Z,2.95
2023-01-22T14:52:40.730Z,2.99
2023-01-22T14:55:10.372Z,2.82
2023-01-22T14:57:38.094Z,2.89
2023-01-22T15:00:07.383Z,3.02
2023-01-22T15:02:37.397Z,2.92
2023-01-22T15:05:05.273Z,2.87
2023-01-22T15:07:34.188Z,2.97
2023-01-22T15:10:02.246Z,2.88
2023-01-22T15:12:31.409Z,3.06
2023-01-22T15:14:59.298Z,2.99
2023-01-22T15:17:26.984Z,2.95
2023-01-22T15:19:54.771Z,2.83
2023-01-22T15:22:22.347Z,3.01
2023-01-22T15:24:49.909Z,2.88
2023-01-22T15:27:19.086Z,2.90
2023-01-22T15:29:48.220Z,2.94
2023-01-22T15:32:15.839Z,2.93
2023-01-22T15:34:43.397Z,3.00
2023-01-22T15:37:13.790Z,2.93
2023-01-22T15:39:41.650Z,2.95
2023-01-22T15:42:09.614Z,2.95
2023-01-22T15:44:37.656Z,2.82
2023-01-22T15:47:06.956Z,2.99
2023-01-22T15:49:34.954Z,3.07
2023-01-22T15:52:02.663Z,3.11
2023-01-22T15:54:30.364Z,2.98
2023-01-22T15:56:58.282Z,2.96
2023-01-22T15:59:25.828Z,2.92
2023-01-22T16:01:53.554Z,3.01
2023-01-22T16:04:22.427Z,3.09
2023-01-22T16:06:51.571Z,3.06
2023-01-22T16:09:19.313Z,2.92
2023-01-22T16:11:46.888Z,3.07
2023-01-22T16:14:14.904Z,3.07
2023-01-22T16:16:42.867Z,3.05
2023-01-22T16:19:13.208Z,3.01
2023-01-22T16:21:43.494Z,3.08
2023-01-22T16:24:11.177Z,3.04
2023-01-22T16:26:38.952Z,2.99
2023-01-22T16:29:07.140Z,3.03
2023-01-22T16:31:36.365Z,3.01
2023-01-22T16:34:09.192Z,3.02
2023-01-22T16:36:37.373Z,3.03
2023-01-22T16:39:06.862Z,2.93
2023-01-22T16:41:35.736Z,3.04
2023-01-22T16:44:07.838Z,2.94
2023-01-22T16:46:39.714Z,2.94
2023-01-22T16:49:09.047Z,3.02
2023-01-22T16:51:38.706Z,3.15
2023-01-22T16:54:08.645Z,3.11
2023-01-22T16:56:36.515Z,3.22
2023-01-22T16:59:04.153Z,3.18
2023-01-22T17:01:32.144Z,3.24
2023-01-22T17:03:59.714Z,3.08
2023-01-22T17:06:28.825Z,3.05
2023-01-22T17:08:56.636Z,3.01
2023-01-22T17:11:25.910Z,3.10
2023-01-22T17:13:56.148Z,3.07
2023-01-22T17:16:24.155Z,3.07
2023-01-22T17:18:51.990Z,3.03
2023-01-22T17:21:20.241Z,3.11
2023-01-22T17:23:48.161Z,3.03
2023-01-22T17:26:16.816Z,3.22
2023-01-22T17:28:46.357Z,3.25
2023-01-22T17:31:19.020Z,3.26
2023-01-22T17:33:47.006Z,3.29
2023-01-22T17:36:16.901Z,3.33
2023-01-22T17:38:44.512Z,3.30
2023-01-22T17:41:16.961Z,3.22
2023-01-22T17:43:47.560Z,3.24
2023-01-22T17:46:16.768Z,3.12
2023-01-22T17:48:45.238Z,3.17
2023-01-22T17:51:14.402Z,3.15
2023-01-22T17:53:47.249Z,3.16
2023-01-22T17:56:16.437Z,3.33
2023-01-22T17:58:58.184Z,3.17
2023-01-22T18:01:30.004Z,3.25
2023-01-22T18:03:58.380Z,3.27
2023-01-22T18:06:25.945Z,3.29
2023-01-22T18:08:53.692Z,3.20
2023-01-22T18:11:24.122Z,3.07
2023-01-22T18:13:55.597Z,2.97
2023-01-22T18:16:24.117Z,2.99
2023-01-22T18:18:53.028Z,2.97
2023-01-22T18:21:22.054Z,2.99
2023-01-22T18:23:50.034Z,3.16
2023-01-22T18:26:22.839Z,3.05
2023-01-22T18:28:50.703Z,3.13
2023-01-22T18:31:22.498Z,3.06
2023-01-22T18:33:51.079Z,2.93
2023-01-22T18:36:20.374Z,3.06
2023-01-22T18:38:48.504Z,3.03
2023-01-22T18:41:18.772Z,3.08
2023-01-22T18:43:48.332Z,3.07
2023-01-22T18:46:16.844Z,3.15
2023-01-22T18:48:46.017Z,2.95
2023-01-22T18:51:14.249Z,3.03
2023-01-22T18:53:42.693Z,3.12
2023-01-22T18:56:11.968Z,3.04
2023-01-22T18:58:42.438Z,3.20
2023-01-22T19:01:12.714Z,3.08
2023-01-22T19:03:41.437Z,3.03
2023-01-22T19:06:14.499Z,3.07
2023-01-22T19:08:43.537Z,3.03
2023-01-22T19:11:12.226Z,2.99
2023-01-22T19:13:40.462Z,3.20
2023-01-22T19:16:10.874Z,3.20
2023-01-22T19:18:39.985Z,3.16
2023-01-22T19:21:11.241Z,3.10
2023-01-22T19:23:38.951Z,3.16
2023-01-22T19:26:08.387Z,3.07
2023-01-22T19:28:35.992Z,3.17
2023-01-22T19:31:03.651Z,3.12
2023-01-22T19:33:31.464Z,3.11
2023-01-22T19:35:59.252Z,3.15
2023-01-22T19:38:28.635Z,3.12
2023-01-22T19:40:56.164Z,3.19
2023-01-22T19:43:23.833Z,3.17
2023-01-22T19:45:51.415Z,3.06
2023-01-22T19:48:20.239Z,3.06
2023-01-22T19:50:47.897Z,3.16
2023-01-22T19:53:15.637Z,3.21
2023-01-22T19:55:44.966Z,3.28
2023-01-22T19:58:12.810Z,3.21
2023-01-22T20:00:40.897Z,3.32
2023-01-22T20:03:09.529Z,3.17
